Time;durP1;ratioP1;P1;durP2;ratioP2;P2;SDS_P1;SDS_P2;PMS_P1;PMS_P2;Temp;Humidity;BMP_temperature;BMP_pressure;BME280_temperature;BME280_humidity;BME280_pressure;Samples;Min_cycle;Max_cycle;Signal;HPM_P1;HPM_P2
2023/08/10 00:00:45;;;;;;;7.50;4.30;;;;;;;12.52;78.82;100447.89;131059;1254;107062;-75
2023/08/10 00:04:10;;;;;;;4.30;3.80;;;;;;;12.53;78.91;100447.80;131164;1251;106484;-75
2023/08/10 00:07:15;;;;;;;5.90;4.40;;;;;;;12.53;78.68;100451.58;131007;1253;107569;-75
2023/08/10 00:10:21;;;;;;;6.90;4.70;;;;;;;12.52;78.75;100447.02;131060;1253;108064;-76
2023/08/10 00:13:27;;;;;;;7.60;5.30;;;;;;;12.47;78.74;100445.92;131026;1257;108185;-75
2023/08/10 00:16:33;;;;;;;5.80;4.30;;;;;;;12.42;78.87;100447.94;131041;1254;107113;-75
2023/08/10 00:19:38;;;;;;;7.00;4.30;;;;;;;12.36;78.83;100448.11;131032;1251;107959;-76
2023/08/10 00:22:44;;;;;;;5.40;4.00;;;;;;;12.36;78.94;100449.77;131077;1256;108630;-76
2023/08/10 00:25:49;;;;;;;5.70;3.90;;;;;;;12.36;78.89;100450.50;131112;1253;108476;-76
2023/08/10 00:28:55;;;;;;;7.00;4.20;;;;;;;12.35;79.05;100446.46;131174;1251;107568;-75
2023/08/10 00:32:01;;;;;;;5.90;4.40;;;;;;;12.36;78.94;100446.95;131155;1251;108654;-76
2023/08/10 00:35:07;;;;;;;9.80;5.10;;;;;;;12.34;79.05;100445.30;131060;1250;107401;-76
2023/08/10 00:38:13;;;;;;;6.90;5.60;;;;;;;12.33;79.17;100448.66;131048;1250;107862;-75
2023/08/10 00:41:18;;;;;;;7.60;5.20;;;;;;;12.30;79.09;100447.79;131130;1250;106651;-75
2023/08/10 00:44:24;;;;;;;7.10;4.30;;;;;;;12.27;79.08;100444.85;131084;1251;106469;-75
2023/08/10 00:47:30;;;;;;;8.10;5.60;;;;;;;12.26;79.07;100448.00;131020;1264;106510;-75
2023/08/10 00:50:36;;;;;;;6.80;5.10;;;;;;;12.26;79.18;100449.70;130958;1253;156199;-75
2023/08/10 00:53:42;;;;;;;6.20;4.80;;;;;;;12.28;79.06;100445.27;131118;1251;110065;-76
2023/08/10 00:56:50;;;;;;;5.70;4.50;;;;;;;12.30;79.35;100447.36;131193;1253;107332;-76
2023/08/10 00:59:56;;;;;;;6.10;4.90;;;;;;;12.34;79.09;100447.67;131327;1254;107947;-76
2023/08/10 01:03:02;;;;;;;6.90;5.10;;;;;;;12.36;79.05;100449.39;131116;1256;107397;-75
2023/08/10 01:06:17;;;;;;;7.40;4.50;;;;;;;12.35;78.95;100448.47;131039;1254;108664;-75
2023/08/10 01:09:31;;;;;;;5.30;4.30;;;;;;;12.31;79.17;100448.36;131101;1256;106870;-75
2023/08/10 01:12:43;;;;;;;5.00;4.00;;;;;;;12.29;79.23;100451.05;131254;1257;108516;-75
2023/08/10 01:15:52;;;;;;;5.20;3.80;;;;;;;12.26;79.27;100453.19;131058;1251;107855;-75
2023/08/10 01:19:00;;;;;;;6.50;4.20;;;;;;;12.25;79.30;100456.65;131011;1253;107712;-75
2023/08/10 01:22:21;;;;;;;5.10;3.90;;;;;;;12.24;79.26;100462.07;131052;1253;106487;-75
2023/08/10 01:25:28;;;;;;;5.10;3.80;;;;;;;12.21;79.13;100468.13;131101;1254;108715;-75
2023/08/10 01:28:36;;;;;;;4.20;3.80;;;;;;;12.24;79.35;100470.50;131110;1253;109120;-76
2023/08/10 01:31:41;;;;;;;5.00;4.00;;;;;;;12.24;79.20;100472.80;131008;1251;106219;-75
2023/08/10 01:34:47;;;;;;;5.10;4.10;;;;;;;12.22;79.20;100476.45;131043;1253;106868;-76
2023/08/10 01:37:52;;;;;;;8.00;4.40;;;;;;;12.18;79.36;100474.67;131049;1257;107808;-76
2023/08/10 01:40:58;;;;;;;6.40;4.30;;;;;;;12.15;79.53;100479.77;131011;1250;107919;-76
2023/08/10 01:44:04;;;;;;;4.20;3.70;;;;;;;12.13;79.26;100476.77;131029;1264;107568;-75
2023/08/10 01:47:16;;;;;;;5.00;3.70;;;;;;;12.13;79.37;100476.02;131054;1257;108843;-76
2023/08/10 01:50:25;;;;;;;7.40;4.30;;;;;;;12.14;79.38;100473.64;131073;1253;107669;-75
2023/08/10 01:53:35;;;;;;;4.40;3.80;;;;;;;12.13;79.48;100472.30;131098;1254;107726;-75
2023/08/10 01:56:40;;;;;;;4.80;4.00;;;;;;;12.11;79.50;100476.00;131135;1257;108378;-76
2023/08/10 01:59:46;;;;;;;7.40;4.50;;;;;;;12.10;79.53;100479.35;131032;1257;108414;-76
2023/08/10 02:02:51;;;;;;;6.60;4.60;;;;;;;12.07;79.25;100479.19;131041;1257;106554;-76
2023/08/10 02:05:57;;;;;;;4.90;4.40;;;;;;;12.02;79.25;100478.75;131015;1256;108326;-76
2023/08/10 02:09:05;;;;;;;4.90;3.90;;;;;;;11.96;79.18;100477.75;130948;1256;106493;-75
2023/08/10 02:12:11;;;;;;;5.90;4.10;;;;;;;11.89;79.31;100476.19;131138;1254;106835;-75
2023/08/10 02:15:16;;;;;;;4.70;3.60;;;;;;;11.86;79.25;100476.84;131037;1254;108363;-75
2023/08/10 02:18:23;;;;;;;6.30;4.00;;;;;;;11.82;79.58;100478.77;131061;1254;107771;-76
2023/08/10 02:21:28;;;;;;;5.60;4.80;;;;;;;11.83;79.62;100479.85;131101;1254;108601;-75
2023/08/10 02:24:34;;;;;;;7.80;4.60;;;;;;;11.81;79.46;100478.06;131046;1257;107623;-75
2023/08/10 02:27:41;;;;;;;5.80;4.70;;;;;;;11.73;79.22;100485.77;131112;1253;107162;-75
2023/08/10 02:30:46;;;;;;;5.50;4.60;;;;;;;11.69;79.76;100484.27;131032;1256;107721;-75
2023/08/10 02:33:51;;;;;;;6.40;4.40;;;;;;;11.65;79.68;100483.52;131015;1267;107730;-75
2023/08/10 02:36:57;;;;;;;7.90;4.60;;;;;;;11.60;79.49;100480.63;130979;1263;107767;-76
2023/08/10 02:40:04;;;;;;;5.50;4.50;;;;;;;11.57;79.55;100481.89;131096;1254;106537;-75
2023/08/10 02:43:10;;;;;;;6.00;5.00;;;;;;;11.56;79.54;100483.95;131152;1265;107162;-74
2023/08/10 02:46:15;;;;;;;7.10;4.80;;;;;;;11.57;79.44;100483.83;131024;1254;108660;-75
2023/08/10 02:49:22;;;;;;;7.20;5.10;;;;;;;11.57;79.23;100487.74;131103;1253;106576;-74
2023/08/10 02:52:28;;;;;;;6.60;5.10;;;;;;;11.57;79.33;100488.13;131043;1253;106612;-75
2023/08/10 02:55:33;;;;;;;6.90;5.50;;;;;;;11.55;79.56;100488.98;131504;1257;108697;-75
2023/08/10 02:58:39;;;;;;;7.80;5.90;;;;;;;11.53;79.50;100492.98;131019;1254;107126;-75
2023/08/10 03:01:46;;;;;;;5.80;5.20;;;;;;;11.49;79.25;100503.86;131017;1254;107655;-75
2023/08/10 03:04:52;;;;;;;6.00;4.90;;;;;;;11.45;79.10;100505.34;131012;1257;105775;-75
2023/08/10 03:07:58;;;;;;;6.00;4.80;;;;;;;11.40;79.17;100509.79;131014;1254;107736;-75
2023/08/10 03:11:04;;;;;;;6.60;5.30;;;;;;;11.33;79.29;100515.27;130999;1263;107029;-76
2023/08/10 03:14:10;;;;;;;6.60;5.30;;;;;;;11.30;79.08;100516.21;131113;1256;106581;-76
2023/08/10 03:17:15;;;;;;;6.30;5.10;;;;;;;11.30;79.30;100518.61;131062;1257;106551;-75
2023/08/10 03:20:21;;;;;;;6.30;5.10;;;;;;;11.29;79.16;100523.50;131061;1253;107538;-75
2023/08/10 03:23:27;;;;;;;6.30;5.40;;;;;;;11.27;79.19;100526.33;131072;1253;106943;-75
2023/08/10 03:26:32;;;;;;;5.50;4.70;;;;;;;11.24;79.18;100528.23;131059;1257;107625;-74
2023/08/10 03:29:39;;;;;;;6.50;4.80;;;;;;;11.20;79.09;100530.55;130951;1254;108063;-75
2023/08/10 03:32:44;;;;;;;4.90;4.30;;;;;;;11.19;79.20;100528.00;130949;1263;107393;-75
2023/08/10 03:35:50;;;;;;;5.10;4.50;;;;;;;11.19;79.18;100527.66;131012;1256;107498;-75
2023/08/10 03:38:56;;;;;;;5.50;4.60;;;;;;;11.20;79.10;100528.08;130990;1254;107721;-75
2023/08/10 03:42:01;;;;;;;8.00;4.90;;;;;;;11.22;79.27;100529.89;131259;1253;107915;-75
2023/08/10 03:45:09;;;;;;;6.00;5.00;;;;;;;11.24;79.04;100531.84;131041;1253;107676;-74
2023/08/10 03:48:15;;;;;;;6.90;5.00;;;;;;;11.25;78.97;100536.70;130961;1256;107058;-75
2023/08/10 03:51:21;;;;;;;6.30;5.20;;;;;;;11.27;79.13;100540.59;131010;1257;106839;-74
2023/08/10 03:54:28;;;;;;;5.60;5.00;;;;;;;11.29;79.01;100542.90;131067;1263;107904;-75
2023/08/10 03:57:34;;;;;;;6.80;4.50;;;;;;;11.28;78.91;100550.45;131090;1263;107746;-75
2023/08/10 04:00:44;;;;;;;5.50;4.40;;;;;;;11.30;79.10;100550.60;130989;1254;105233;-74
2023/08/10 04:03:50;;;;;;;6.40;4.60;;;;;;;11.38;79.22;100555.03;131039;1254;107664;-74
2023/08/10 04:06:56;;;;;;;7.20;5.10;;;;;;;11.48;79.25;100555.12;131037;1264;107656;-75
2023/08/10 04:10:01;;;;;;;6.40;5.00;;;;;;;11.55;79.11;100560.09;131058;1256;107792;-75
2023/08/10 04:13:07;;;;;;;6.10;5.50;;;;;;;11.62;78.99;100560.98;131038;1256;107630;-75
2023/08/10 04:16:13;;;;;;;7.60;5.60;;;;;;;11.66;78.90;100557.08;130987;1253;107645;-74
2023/08/10 04:19:19;;;;;;;6.60;5.90;;;;;;;11.72;79.12;100559.87;131045;1263;108519;-75
2023/08/10 04:22:24;;;;;;;6.60;5.90;;;;;;;11.78;79.08;100556.19;130994;1254;107797;-74
2023/08/10 04:25:30;;;;;;;7.00;5.50;;;;;;;11.80;78.91;100556.36;130987;1261;107684;-75
2023/08/10 04:28:35;;;;;;;8.10;5.00;;;;;;;11.85;79.06;100560.49;131015;1255;107689;-75
2023/08/10 04:31:41;;;;;;;7.30;5.30;;;;;;;11.99;79.05;100557.70;131011;1257;108721;-75
2023/08/10 04:34:46;;;;;;;9.00;5.40;;;;;;;12.13;78.85;100557.31;131063;1263;106737;-75
2023/08/10 04:37:53;;;;;;;6.80;5.80;;;;;;;12.31;78.96;100559.13;131082;1258;106942;-75
2023/08/10 04:40:59;;;;;;;6.10;5.50;;;;;;;12.50;79.00;100558.05;131050;1253;106311;-74
2023/08/10 04:44:05;;;;;;;7.80;6.00;;;;;;;12.71;79.03;100559.84;131171;1263;108569;-75
2023/08/10 04:47:10;;;;;;;6.50;5.60;;;;;;;12.96;79.15;100563.27;131100;1263;106596;-75
2023/08/10 04:50:16;;;;;;;6.20;5.50;;;;;;;13.22;79.32;100570.56;131059;1263;107589;-75
2023/08/10 04:53:22;;;;;;;6.70;5.00;;;;;;;13.48;79.23;100567.09;130971;1253;106939;-75
2023/08/10 04:56:28;;;;;;;8.40;5.40;;;;;;;13.76;79.42;100571.58;131106;1264;107706;-75
2023/08/10 04:59:33;;;;;;;7.30;5.80;;;;;;;14.06;79.18;100574.48;131062;1263;106619;-75
2023/08/10 05:02:39;;;;;;;8.80;5.70;;;;;;;14.32;79.39;100572.65;131030;1264;108208;-76
2023/08/10 05:05:45;;;;;;;9.80;6.10;;;;;;;14.61;79.53;100575.23;131190;1254;105800;-74
2023/08/10 05:08:50;;;;;;;7.30;6.40;;;;;;;14.84;79.43;100577.41;131089;1254;106604;-74
2023/08/10 05:11:56;;;;;;;7.90;6.10;;;;;;;15.05;79.45;100578.80;131186;1264;108040;-75
2023/08/10 05:15:03;;;;;;;7.60;6.20;;;;;;;15.24;79.80;100579.92;131035;1254;106884;-74
2023/08/10 05:18:08;;;;;;;9.80;6.20;;;;;;;15.43;80.02;100581.73;131000;1258;107030;-75
2023/08/10 05:21:14;;;;;;;8.70;6.80;;;;;;;15.65;80.08;100583.45;131086;1257;106459;-75
2023/08/10 05:24:19;;;;;;;8.60;7.80;;;;;;;15.81;80.19;100584.86;131122;1256;107262;-75
2023/08/10 05:27:25;;;;;;;10.00;8.50;;;;;;;16.02;80.52;100585.06;131153;1256;106252;-76
2023/08/10 05:30:31;;;;;;;8.40;7.60;;;;;;;16.19;80.56;100587.95;131216;1251;106410;-75
2023/08/10 05:33:36;;;;;;;9.40;8.40;;;;;;;16.36;80.63;100588.48;131150;1257;107533;-75
2023/08/10 05:36:42;;;;;;;10.00;6.90;;;;;;;16.51;80.76;100591.62;131123;1254;106966;-76
2023/08/10 05:39:47;;;;;;;6.60;5.90;;;;;;;16.67;80.69;100594.23;131164;1253;109503;-76
2023/08/10 05:42:53;;;;;;;7.40;6.70;;;;;;;16.82;80.67;100598.55;131189;1253;108035;-75
2023/08/10 05:45:59;;;;;;;10.50;7.20;;;;;;;16.92;80.64;100600.44;131117;1259;107902;-74
2023/08/10 05:49:04;;;;;;;9.40;7.30;;;;;;;17.06;80.84;100600.18;131051;1263;106966;-73
2023/08/10 05:52:10;;;;;;;6.90;6.20;;;;;;;17.16;80.54;100605.75;131072;1263;108532;-73
2023/08/10 05:55:16;;;;;;;8.20;6.80;;;;;;;17.26;80.51;100609.94;131060;1254;106478;-73
2023/08/10 05:58:21;;;;;;;7.40;6.70;;;;;;;17.33;80.54;100608.78;131059;1254;107506;-73
2023/08/10 06:01:27;;;;;;;7.40;6.60;;;;;;;17.36;80.68;100610.42;130993;1261;108798;-73
2023/08/10 06:04:34;;;;;;;7.00;5.90;;;;;;;17.38;80.58;100610.49;131133;1251;106643;-73
2023/08/10 06:07:40;;;;;;;6.40;5.40;;;;;;;17.43;80.49;100611.36;131076;1256;107819;-73
2023/08/10 06:10:49;;;;;;;7.50;6.10;;;;;;;17.50;80.90;100614.17;130993;1253;107672;-73
2023/08/10 06:13:54;;;;;;;6.90;6.20;;;;;;;17.60;80.75;100616.56;131134;1263;106824;-74
2023/08/10 06:17:00;;;;;;;6.50;5.70;;;;;;;17.64;80.29;100614.66;131061;1255;106375;-73
2023/08/10 06:20:09;;;;;;;5.90;5.20;;;;;;;17.65;80.01;100618.42;131207;1254;107761;-73
2023/08/10 06:23:15;;;;;;;6.70;4.80;;;;;;;17.65;79.77;100618.08;131094;1259;106718;-74
2023/08/10 06:26:20;;;;;;;5.00;4.50;;;;;;;17.65;79.82;100618.63;131039;1255;107829;-73
2023/08/10 06:29:26;;;;;;;5.10;4.00;;;;;;;17.66;79.85;100620.70;131116;1254;106670;-73
2023/08/10 06:32:33;;;;;;;5.10;4.40;;;;;;;17.68;79.95;100622.21;130980;1253;107647;-73
2023/08/10 06:35:39;;;;;;;6.10;5.00;;;;;;;17.72;79.98;100624.46;131056;1255;107671;-74
2023/08/10 06:38:44;;;;;;;6.80;4.90;;;;;;;17.77;79.90;100629.29;130987;1253;106714;-73
2023/08/10 06:41:50;;;;;;;5.20;4.50;;;;;;;17.80;79.98;100630.61;131048;1254;106483;-73
2023/08/10 06:44:58;;;;;;;5.50;4.70;;;;;;;17.81;79.67;100631.05;131106;1255;107853;-73
2023/08/10 06:48:04;;;;;;;5.30;4.40;;;;;;;17.82;79.61;100633.83;131038;1254;106756;-73
2023/08/10 06:51:10;;;;;;;5.20;4.20;;;;;;;17.81;79.64;100630.38;131057;1254;107704;-73
2023/08/10 06:54:16;;;;;;;6.70;3.80;;;;;;;17.80;79.33;100633.33;131042;1251;108509;-74
2023/08/10 06:57:21;;;;;;;5.10;3.70;;;;;;;17.84;79.37;100634.16;131087;1254;107798;-74
2023/08/10 07:00:27;;;;;;;5.20;3.80;;;;;;;17.88;78.44;100632.80;131057;1264;107993;-74
2023/08/10 07:03:35;;;;;;;4.20;3.00;;;;;;;17.85;78.28;100632.44;131043;1255;107660;-73
2023/08/10 07:06:40;;;;;;;4.10;3.10;;;;;;;17.92;79.12;100636.55;131092;1254;107697;-74
2023/08/10 07:09:47;;;;;;;4.00;3.10;;;;;;;18.03;78.65;100632.29;131005;1251;106895;-74
2023/08/10 07:12:52;;;;;;;6.50;3.00;;;;;;;18.12;78.41;100635.54;131095;1254;108082;-75
2023/08/10 07:15:58;;;;;;;5.20;3.10;;;;;;;18.17;78.52;100631.59;131112;1253;106400;-76
2023/08/10 07:19:04;;;;;;;4.60;3.00;;;;;;;18.24;78.50;100634.02;131030;1254;107937;-75
2023/08/10 07:22:09;;;;;;;4.50;2.80;;;;;;;18.31;78.51;100640.48;131027;1254;106874;-75
2023/08/10 07:25:16;;;;;;;3.90;2.70;;;;;;;18.36;78.19;100638.58;131081;1253;108675;-74
2023/08/10 07:28:24;;;;;;;4.10;2.70;;;;;;;18.43;77.67;100636.27;131079;1263;107908;-77
2023/08/10 07:31:31;;;;;;;5.20;2.70;;;;;;;18.52;77.31;100635.34;131100;1251;106875;-74
2023/08/10 07:34:37;;;;;;;3.50;2.40;;;;;;;18.62;77.28;100640.15;131267;1254;107642;-75
2023/08/10 07:37:43;;;;;;;4.00;2.70;;;;;;;18.71;76.92;100641.30;131153;1251;107076;-75
2023/08/10 07:40:48;;;;;;;3.30;2.50;;;;;;;18.77;76.54;100636.20;131206;1253;107765;-74
2023/08/10 07:43:54;;;;;;;3.00;2.20;;;;;;;18.79;76.10;100638.33;131216;1254;106583;-74
2023/08/10 07:46:59;;;;;;;3.80;2.50;;;;;;;18.84;76.03;100636.34;131145;1251;107009;-74
2023/08/10 07:50:06;;;;;;;3.20;2.10;;;;;;;18.89;75.28;100641.66;131033;1254;107517;-74
2023/08/10 07:53:12;;;;;;;3.80;2.10;;;;;;;18.94;74.56;100642.82;130999;1251;107659;-74
2023/08/10 07:56:18;;;;;;;3.40;2.10;;;;;;;18.97;74.13;100643.99;131061;1254;106763;-74
2023/08/10 07:59:23;;;;;;;4.20;1.80;;;;;;;18.98;73.80;100641.31;131161;1254;108612;-74
2023/08/10 08:02:29;;;;;;;2.90;2.20;;;;;;;19.03;73.61;100640.33;131151;1251;106685;-75
2023/08/10 08:05:37;;;;;;;3.00;1.90;;;;;;;19.08;72.78;100634.48;131139;1253;107833;-74
2023/08/10 08:08:43;;;;;;;3.00;1.80;;;;;;;19.14;73.05;100637.14;131228;1251;106491;-74
2023/08/10 08:11:48;;;;;;;2.40;1.60;;;;;;;19.21;73.07;100637.10;131103;1254;108175;-74
2023/08/10 08:14:54;;;;;;;2.90;1.70;;;;;;;19.28;72.34;100637.71;131179;1251;107431;-74
2023/08/10 08:18:37;;;;;;;2.40;1.80;;;;;;;19.34;72.66;100637.37;131089;1254;106350;-74
2023/08/10 08:21:46;;;;;;;2.70;1.60;;;;;;;19.42;70.35;100643.73;131098;1249;107907;-74
2023/08/10 08:24:52;;;;;;;2.40;1.50;;;;;;;19.36;66.94;100645.83;131044;1254;107762;-74
2023/08/10 08:27:58;;;;;;;3.60;1.50;;;;;;;19.34;66.94;100644.77;131035;1254;107812;-74
2023/08/10 08:31:04;;;;;;;2.80;1.50;;;;;;;19.36;67.19;100638.16;131049;1251;106817;-74
2023/08/10 08:34:10;;;;;;;2.30;1.30;;;;;;;19.42;68.74;100635.23;131053;1253;107680;-74
2023/08/10 08:37:15;;;;;;;1.60;1.30;;;;;;;19.45;68.79;100640.99;131136;1253;107565;-73
2023/08/10 08:40:22;;;;;;;2.40;1.30;;;;;;;19.39;68.99;100642.97;131060;1254;107631;-73
2023/08/10 08:43:27;;;;;;;1.50;1.20;;;;;;;19.53;69.26;100642.98;131190;1251;106523;-74
2023/08/10 08:46:34;;;;;;;2.60;1.30;;;;;;;19.77;69.00;100643.45;131014;1263;106479;-76
2023/08/10 08:49:39;;;;;;;2.90;1.20;;;;;;;20.02;68.47;100643.27;131088;1250;107629;-75
2023/08/10 08:52:46;;;;;;;2.60;1.30;;;;;;;20.23;67.65;100644.77;131052;1255;107627;-74
2023/08/10 08:55:52;;;;;;;2.50;1.20;;;;;;;20.37;66.51;100650.73;131081;1251;107049;-74
2023/08/10 08:58:57;;;;;;;2.50;1.30;;;;;;;20.41;66.92;100652.10;131118;1253;107919;-74
2023/08/10 09:02:03;;;;;;;2.00;1.30;;;;;;;20.41;67.02;100652.10;131115;1253;108734;-74
2023/08/10 09:05:10;;;;;;;4.60;1.50;;;;;;;20.37;65.21;100648.10;131004;1251;106884;-74
2023/08/10 09:08:17;;;;;;;3.70;1.70;;;;;;;20.29;66.32;100653.27;130993;1255;106799;-73
2023/08/10 09:11:23;;;;;;;3.30;1.50;;;;;;;20.33;64.94;100646.77;130995;1251;107304;-74
2023/08/10 09:14:29;;;;;;;2.30;1.30;;;;;;;20.42;63.82;100649.44;130962;1254;107586;-74
2023/08/10 09:17:36;;;;;;;2.30;1.40;;;;;;;20.61;63.16;100645.61;131051;1251;106613;-74
2023/08/10 09:20:41;;;;;;;2.80;1.40;;;;;;;20.78;61.91;100648.58;130979;1253;106711;-74
2023/08/10 09:23:52;;;;;;;4.00;1.70;;;;;;;20.82;63.11;100650.57;130999;1256;107163;-76
2023/08/10 09:27:02;;;;;;;2.30;1.40;;;;;;;20.80;64.00;100654.58;131009;1255;107004;-74
2023/08/10 09:30:10;;;;;;;2.20;1.30;;;;;;;20.71;63.52;100652.83;131145;1254;107739;-74
2023/08/10 09:33:32;;;;;;;1.50;1.20;;;;;;;20.65;64.13;100652.27;131127;1256;108262;-74
2023/08/10 09:36:38;;;;;;;2.60;1.30;;;;;;;20.63;63.87;100648.83;131141;1263;107603;-73
2023/08/10 09:39:43;;;;;;;1.90;1.20;;;;;;;20.69;63.70;100650.13;131188;1254;107593;-74
2023/08/10 09:42:50;;;;;;;3.10;1.40;;;;;;;20.91;63.43;100645.63;131584;1251;108563;-74
2023/08/10 09:46:06;;;;;;;1.70;1.20;;;;;;;21.10;62.38;100644.70;131269;1250;107752;-75
2023/08/10 09:49:17;;;;;;;3.80;1.40;;;;;;;21.25;60.31;100646.58;131049;1254;107573;-75
2023/08/10 09:52:23;;;;;;;2.40;1.00;;;;;;;21.23;60.23;100647.71;131219;1254;107806;-75
2023/08/10 09:55:29;;;;;;;2.40;1.10;;;;;;;21.19;60.46;100652.77;130944;1257;108002;-76
2023/08/10 09:58:36;;;;;;;2.80;1.10;;;;;;;21.07;58.55;100650.52;131075;1251;108242;-78
2023/08/10 10:01:43;;;;;;;2.30;1.30;;;;;;;20.97;60.60;100650.58;131081;1255;107093;-76
2023/08/10 10:04:50;;;;;;;3.20;1.10;;;;;;;20.98;60.33;100649.87;131084;1254;106932;-76
2023/08/10 10:07:55;;;;;;;1.70;1.00;;;;;;;20.98;60.30;100650.41;131084;1253;107634;-75
2023/08/10 10:11:05;;;;;;;2.60;1.50;;;;;;;21.02;60.78;100649.08;131068;1250;106849;-76
2023/08/10 10:14:11;;;;;;;2.20;1.20;;;;;;;21.05;60.71;100651.42;131285;1250;106882;-77
2023/08/10 10:17:18;;;;;;;2.20;1.10;;;;;;;21.18;59.34;100653.31;131320;1251;106896;-76
2023/08/10 10:20:24;;;;;;;2.10;1.10;;;;;;;21.27;59.44;100655.88;131042;1254;106621;-76
2023/08/10 10:23:31;;;;;;;1.80;1.20;;;;;;;21.36;57.72;100649.17;130996;1256;107899;-75
2023/08/10 10:26:38;;;;;;;1.60;1.00;;;;;;;21.36;56.38;100649.55;130901;1254;106977;-75
2023/08/10 10:29:52;;;;;;;1.40;1.00;;;;;;;21.34;56.65;100652.48;131028;1251;108367;-76
2023/08/10 10:32:58;;;;;;;1.90;1.10;;;;;;;21.52;57.81;100654.06;131283;1251;106856;-76
2023/08/10 10:36:12;;;;;;;2.10;1.20;;;;;;;21.54;56.53;100657.70;131053;1250;107371;-76
2023/08/10 10:39:22;;;;;;;2.10;1.00;;;;;;;21.45;57.25;100653.80;131048;1250;108564;-76
2023/08/10 10:42:27;;;;;;;3.00;1.00;;;;;;;21.52;57.68;100650.88;131128;1250;107361;-75
2023/08/10 10:45:37;;;;;;;2.40;1.30;;;;;;;21.71;57.75;100653.31;131090;1256;107831;-75
2023/08/10 10:48:50;;;;;;;2.20;1.20;;;;;;;21.94;57.61;100655.39;131025;1257;106349;-78
2023/08/10 10:52:00;;;;;;;1.50;1.00;;;;;;;22.11;56.83;100653.03;131090;1251;106917;-75
2023/08/10 10:55:10;;;;;;;2.20;1.10;;;;;;;22.24;56.81;100649.90;131071;1254;108607;-76
2023/08/10 10:58:16;;;;;;;2.70;1.10;;;;;;;22.29;53.17;100655.86;131206;1256;107685;-76
2023/08/10 11:01:23;;;;;;;1.50;1.00;;;;;;;22.26;52.17;100653.16;131115;1255;107775;-76
2023/08/10 11:04:28;;;;;;;2.30;1.10;;;;;;;22.26;52.52;100656.48;131017;1253;107492;-76
2023/08/10 11:07:40;;;;;;;2.00;1.20;;;;;;;22.32;54.70;100645.04;131026;1253;106916;-73
2023/08/10 11:10:44;;;;;;;;;;;;;;;22.42;54.02;100644.05;131302;1251;107614;-74
2023/08/10 11:13:50;;;;;;;2.30;1.10;;;;;;;22.49;52.72;100640.60;131017;1250;107798;-74
2023/08/10 11:16:56;;;;;;;1.80;1.20;;;;;;;22.46;51.34;100641.20;131225;1250;107484;-75
2023/08/10 11:20:02;;;;;;;1.80;1.10;;;;;;;22.39;50.28;100638.99;131004;1251;107652;-74
2023/08/10 11:23:08;;;;;;;3.00;1.20;;;;;;;22.36;50.27;100638.53;131094;1253;108677;-75
2023/08/10 11:26:13;;;;;;;2.60;1.20;;;;;;;22.45;48.67;100640.22;131086;1255;106601;-74
2023/08/10 11:29:21;;;;;;;2.30;0.90;;;;;;;22.57;51.41;100639.36;131152;1254;108695;-74
2023/08/10 11:32:26;;;;;;;2.20;1.10;;;;;;;22.78;51.51;100636.81;131099;1252;106712;-74
2023/08/10 11:35:32;;;;;;;3.00;1.10;;;;;;;22.96;49.85;100637.86;131064;1251;108478;-74
2023/08/10 11:38:49;;;;;;;3.20;1.10;;;;;;;23.05;48.86;100637.93;131110;1251;105757;-74
2023/08/10 11:41:56;;;;;;;2.40;1.00;;;;;;;23.14;48.88;100637.02;131002;1251;107725;-74
2023/08/10 11:45:03;;;;;;;1.40;1.10;;;;;;;23.26;49.69;100635.02;131085;1253;106594;-74
2023/08/10 11:48:11;;;;;;;2.00;1.00;;;;;;;23.32;46.91;100635.62;131041;1257;107810;-74
2023/08/10 11:51:18;;;;;;;1.80;1.20;;;;;;;23.27;46.76;100637.95;131026;1254;108490;-75
2023/08/10 11:54:30;;;;;;;1.90;1.00;;;;;;;23.22;47.93;100640.02;131065;1254;107743;-74
2023/08/10 11:57:39;;;;;;;1.70;0.90;;;;;;;23.28;49.51;100635.80;131034;1254;107006;-74
2023/08/10 12:00:50;;;;;;;1.80;1.00;;;;;;;23.30;49.08;100630.03;131050;1251;108629;-74
2023/08/10 12:03:55;;;;;;;2.20;1.00;;;;;;;23.24;49.55;100632.84;131023;1253;107502;-74
2023/08/10 12:07:01;;;;;;;1.50;0.80;;;;;;;23.15;50.30;100633.40;131065;1252;106987;-74
2023/08/10 12:10:12;;;;;;;1.20;0.80;;;;;;;23.07;50.38;100634.02;131007;1253;108881;-74
2023/08/10 12:13:20;;;;;;;2.70;0.90;;;;;;;22.99;50.44;100630.16;131081;1254;108143;-76
2023/08/10 12:16:25;;;;;;;1.30;0.90;;;;;;;22.86;49.53;100631.30;131097;1251;108755;-74
2023/08/10 12:19:31;;;;;;;1.90;1.00;;;;;;;22.69;49.66;100627.36;130994;1253;107585;-74
2023/08/10 12:22:42;;;;;;;1.50;0.90;;;;;;;22.70;49.98;100624.08;130975;1254;107578;-76
2023/08/10 12:25:50;;;;;;;2.60;1.00;;;;;;;22.72;50.05;100625.45;131007;1251;107062;-75
2023/08/10 12:28:55;;;;;;;1.30;0.90;;;;;;;22.74;50.32;100624.55;131065;1254;107610;-74
2023/08/10 12:32:01;;;;;;;2.10;1.00;;;;;;;22.72;49.72;100623.52;131100;1251;106277;-74
2023/08/10 12:35:08;;;;;;;1.50;0.80;;;;;;;22.70;49.84;100623.46;131010;1253;106794;-74
2023/08/10 12:38:13;;;;;;;2.80;0.90;;;;;;;22.66;50.12;100621.61;131084;1251;106838;-75
2023/08/10 12:41:19;;;;;;;1.20;0.90;;;;;;;22.61;49.98;100623.13;131044;1253;106573;-74
2023/08/10 12:44:24;;;;;;;1.00;0.80;;;;;;;22.59;50.28;100619.14;130993;1253;108709;-74
2023/08/10 12:47:30;;;;;;;1.70;0.90;;;;;;;22.57;50.21;100618.10;131146;1253;107074;-74
2023/08/10 12:50:36;;;;;;;1.40;0.80;;;;;;;22.55;50.26;100614.68;130960;1250;161016;-74
2023/08/10 12:53:42;;;;;;;1.80;0.90;;;;;;;22.56;50.37;100614.22;131103;1253;107791;-75
2023/08/10 12:56:47;;;;;;;1.60;1.00;;;;;;;22.67;49.43;100610.92;131024;1250;108011;-74
2023/08/10 12:59:53;;;;;;;1.70;0.80;;;;;;;22.69;48.95;100609.56;131042;1253;108025;-74
2023/08/10 13:02:59;;;;;;;1.70;0.90;;;;;;;22.62;48.98;100609.34;131080;1254;107493;-74
2023/08/10 13:06:04;;;;;;;1.70;0.90;;;;;;;22.56;49.22;100614.30;131069;1253;107922;-74
2023/08/10 13:09:10;;;;;;;2.50;1.10;;;;;;;22.47;49.25;100608.69;131075;1254;108476;-74
2023/08/10 13:12:16;;;;;;;2.30;1.00;;;;;;;22.38;49.50;100608.94;131052;1254;107975;-74
2023/08/10 13:15:21;;;;;;;1.90;0.90;;;;;;;22.31;49.95;100605.27;131157;1251;109382;-74
2023/08/10 13:18:26;;;;;;;2.40;1.00;;;;;;;22.29;49.59;100604.33;131110;1254;106577;-75
2023/08/10 13:21:32;;;;;;;4.10;1.00;;;;;;;22.28;49.41;100605.23;131011;1254;106684;-74
2023/08/10 13:24:38;;;;;;;2.10;1.00;;;;;;;22.22;48.94;100602.23;131055;1253;107624;-74
2023/08/10 13:27:44;;;;;;;1.90;0.90;;;;;;;22.17;48.76;100598.67;131078;1253;106627;-75
2023/08/10 13:30:49;;;;;;;1.30;0.80;;;;;;;22.12;49.42;100596.88;131043;1251;108051;-75
2023/08/10 13:33:55;;;;;;;2.30;1.10;;;;;;;22.06;49.38;100601.84;131086;1254;107821;-74
2023/08/10 13:37:00;;;;;;;1.00;0.80;;;;;;;22.00;49.34;100602.44;131054;1250;107497;-75
2023/08/10 13:40:08;;;;;;;2.20;1.00;;;;;;;21.94;49.47;100602.64;131014;1250;108468;-75
2023/08/10 13:43:14;;;;;;;2.00;1.10;;;;;;;21.89;50.12;100601.85;131123;1253;108512;-75
2023/08/10 13:46:19;;;;;;;0.90;0.80;;;;;;;21.83;50.86;100603.30;130992;1253;107651;-74
2023/08/10 13:49:25;;;;;;;1.60;0.90;;;;;;;21.80;50.94;100600.48;130993;1254;107188;-74
2023/08/10 13:52:30;;;;;;;2.40;1.00;;;;;;;21.84;50.43;100599.87;131052;1250;107694;-73
2023/08/10 13:55:36;;;;;;;1.40;0.90;;;;;;;22.00;49.49;100597.84;131037;1251;109294;-75
2023/08/10 13:58:41;;;;;;;1.40;0.90;;;;;;;22.09;49.57;100597.15;131065;1249;108712;-74
2023/08/10 14:01:47;;;;;;;2.10;1.10;;;;;;;22.17;50.17;100595.20;130958;1251;107894;-74
2023/08/10 14:04:52;;;;;;;2.40;1.30;;;;;;;22.25;50.38;100593.95;131055;1251;106950;-74
2023/08/10 14:07:58;;;;;;;2.10;1.20;;;;;;;22.27;50.63;100591.71;131041;1254;107866;-74